sensor_id;sensor_type;location;lat;lon;timestamp;pressure;altitude;pressure_sealevel;temperature;humidity
51123;BME280;37162;41.724;13.346;2022-08-19T00:01:36;96255.84;;;25.35;56.69
51123;BME280;37162;41.724;13.346;2022-08-19T00:04:06;96263.19;;;25.35;57.00
51123;BME280;37162;41.724;13.346;2022-08-19T00:06:33;96314.47;;;25.28;57.55
51123;BME280;37162;41.724;13.346;2022-08-19T00:08:59;96319.00;;;25.32;57.16
51123;BME280;37162;41.724;13.346;2022-08-19T00:11:28;96308.03;;;25.37;60.32
51123;BME280;37162;41.724;13.346;2022-08-19T00:13:55;96310.03;;;25.32;60.78
51123;BME280;37162;41.724;13.346;2022-08-19T00:16:23;96310.94;;;25.27;60.29
51123;BME280;37162;41.724;13.346;2022-08-19T00:18:49;96285.44;;;25.23;59.86
51123;BME280;37162;41.724;13.346;2022-08-19T00:21:15;96286.56;;;25.22;58.92
51123;BME280;37162;41.724;13.346;2022-08-19T00:23:41;96271.31;;;25.21;58.35
51123;BME280;37162;41.724;13.346;2022-08-19T00:26:09;96262.34;;;25.20;58.59
51123;BME280;37162;41.724;13.346;2022-08-19T00:28:35;96244.94;;;25.21;58.30
51123;BME280;37162;41.724;13.346;2022-08-19T00:31:04;96221.28;;;25.22;58.63
51123;BME280;37162;41.724;13.346;2022-08-19T00:33:32;96220.78;;;25.20;58.47
51123;BME280;37162;41.724;13.346;2022-08-19T00:35:59;96231.34;;;25.21;58.49
51123;BME280;37162;41.724;13.346;2022-08-19T00:38:24;96193.28;;;25.21;58.83
51123;BME280;37162;41.724;13.346;2022-08-19T00:40:50;96201.44;;;25.21;58.95
51123;BME280;37162;41.724;13.346;2022-08-19T00:43:19;96204.16;;;25.21;58.76
51123;BME280;37162;41.724;13.346;2022-08-19T00:45:46;96236.78;;;25.21;59.79
51123;BME280;37162;41.724;13.346;2022-08-19T00:48:13;96264.34;;;25.15;59.49
51123;BME280;37162;41.724;13.346;2022-08-19T00:50:39;96275.16;;;25.20;58.96
51123;BME280;37162;41.724;13.346;2022-08-19T00:53:09;96265.38;;;25.19;59.31
51123;BME280;37162;41.724;13.346;2022-08-19T00:55:37;96216.44;;;25.19;59.42
51123;BME280;37162;41.724;13.346;2022-08-19T00:58:08;96240.91;;;25.19;59.31
51123;BME280;37162;41.724;13.346;2022-08-19T01:00:35;96262.66;;;25.19;59.57
51123;BME280;37162;41.724;13.346;2022-08-19T01:03:09;96240.09;;;25.18;59.56
51123;BME280;37162;41.724;13.346;2022-08-19T01:05:35;96230.34;;;25.17;59.80
51123;BME280;37162;41.724;13.346;2022-08-19T01:08:07;96243.50;;;25.10;59.36
51123;BME280;37162;41.724;13.346;2022-08-19T01:10:56;96319.22;;;25.17;59.37
51123;BME280;37162;41.724;13.346;2022-08-19T01:13:25;96379.34;;;25.15;59.34
51123;BME280;37162;41.724;13.346;2022-08-19T01:15:55;96318.16;;;25.18;60.71
51123;BME280;37162;41.724;13.346;2022-08-19T01:18:22;96236.88;;;25.16;60.43
51123;BME280;37162;41.724;13.346;2022-08-19T01:20:48;96205.34;;;25.15;60.54
51123;BME280;37162;41.724;13.346;2022-08-19T01:23:14;96210.00;;;25.15;60.30
51123;BME280;37162;41.724;13.346;2022-08-19T01:25:51;96212.72;;;25.15;60.30
51123;BME280;37162;41.724;13.346;2022-08-19T01:28:23;96228.53;;;25.13;60.01
51123;BME280;37162;41.724;13.346;2022-08-19T01:30:51;96256.50;;;25.13;60.24
51123;BME280;37162;41.724;13.346;2022-08-19T01:33:17;96247.41;;;25.04;60.40
51123;BME280;37162;41.724;13.346;2022-08-19T01:35:45;96261.78;;;25.05;60.28
51123;BME280;37162;41.724;13.346;2022-08-19T01:38:21;96282.91;;;25.13;60.06
51123;BME280;37162;41.724;13.346;2022-08-19T01:40:47;96285.63;;;25.13;60.14
51123;BME280;37162;41.724;13.346;2022-08-19T01:43:12;96247.56;;;25.13;60.16
51123;BME280;37162;41.724;13.346;2022-08-19T01:45:38;96221.16;;;25.13;60.44
51123;BME280;37162;41.724;13.346;2022-08-19T01:48:06;96184.19;;;25.12;60.50
51123;BME280;37162;41.724;13.346;2022-08-19T01:50:33;96116.59;;;25.06;60.42
51123;BME280;37162;41.724;13.346;2022-08-19T01:53:00;96136.38;;;25.11;60.68
51123;BME280;37162;41.724;13.346;2022-08-19T01:55:25;96154.59;;;25.11;60.52
51123;BME280;37162;41.724;13.346;2022-08-19T01:57:55;96228.81;;;25.11;60.48
51123;BME280;37162;41.724;13.346;2022-08-19T02:00:25;96249.75;;;25.11;60.52
51123;BME280;37162;41.724;13.346;2022-08-19T02:02:52;96259.81;;;25.10;60.58
51123;BME280;37162;41.724;13.346;2022-08-19T02:05:18;96266.06;;;25.11;60.86
51123;BME280;37162;41.724;13.346;2022-08-19T02:07:46;96293.56;;;25.09;61.08
51123;BME280;37162;41.724;13.346;2022-08-19T02:10:15;96292.44;;;25.10;61.21
51123;BME280;37162;41.724;13.346;2022-08-19T02:12:41;96285.41;;;25.09;61.09
51123;BME280;37162;41.724;13.346;2022-08-19T02:15:06;96281.88;;;25.09;60.90
51123;BME280;37162;41.724;13.346;2022-08-19T02:17:34;96282.72;;;25.04;61.13
51123;BME280;37162;41.724;13.346;2022-08-19T02:19:59;96279.94;;;25.09;60.85
51123;BME280;37162;41.724;13.346;2022-08-19T02:22:26;96232.94;;;25.09;60.89
51123;BME280;37162;41.724;13.346;2022-08-19T02:24:52;96163.06;;;25.09;61.14
51123;BME280;37162;41.724;13.346;2022-08-19T02:27:18;96102.47;;;25.09;61.39
51123;BME280;37162;41.724;13.346;2022-08-19T02:29:45;96071.81;;;25.03;61.37
51123;BME280;37162;41.724;13.346;2022-08-19T02:32:10;96082.38;;;25.05;61.29
51123;BME280;37162;41.724;13.346;2022-08-19T02:34:36;96143.00;;;25.05;61.28
51123;BME280;37162;41.724;13.346;2022-08-19T02:37:01;96217.19;;;25.06;61.27
51123;BME280;37162;41.724;13.346;2022-08-19T02:39:27;96227.25;;;25.05;61.27
51123;BME280;37162;41.724;13.346;2022-08-19T02:41:52;96232.47;;;25.02;61.10
51123;BME280;37162;41.724;13.346;2022-08-19T02:44:18;96236.22;;;25.06;61.17
51123;BME280;37162;41.724;13.346;2022-08-19T02:46:45;96251.72;;;25.05;61.12
51123;BME280;37162;41.724;13.346;2022-08-19T02:49:12;96266.91;;;25.06;61.19
51123;BME280;37162;41.724;13.346;2022-08-19T02:51:40;96240.53;;;25.07;61.03
51123;BME280;37162;41.724;13.346;2022-08-19T02:54:07;96241.38;;;25.07;60.91
51123;BME280;37162;41.724;13.346;2022-08-19T02:56:37;96266.63;;;25.08;61.36
51123;BME280;37162;41.724;13.346;2022-08-19T02:59:04;96266.13;;;25.06;61.38
51123;BME280;37162;41.724;13.346;2022-08-19T03:01:34;96238.13;;;25.05;61.64
51123;BME280;37162;41.724;13.346;2022-08-19T03:04:03;96229.97;;;25.05;61.44
51123;BME280;37162;41.724;13.346;2022-08-19T03:06:30;96245.47;;;25.05;61.40
51123;BME280;37162;41.724;13.346;2022-08-19T03:08:56;96250.91;;;25.05;61.61
51123;BME280;37162;41.724;13.346;2022-08-19T03:11:29;96206.63;;;25.04;61.63
51123;BME280;37162;41.724;13.346;2022-08-19T03:13:55;96167.75;;;25.04;61.59
51123;BME280;37162;41.724;13.346;2022-08-19T03:16:22;96088.94;;;25.04;61.65
51123;BME280;37162;41.724;13.346;2022-08-19T03:18:49;96130.00;;;25.02;61.58
51123;BME280;37162;41.724;13.346;2022-08-19T03:21:17;96130.78;;;25.03;61.92
51123;BME280;37162;41.724;13.346;2022-08-19T03:23:43;96050.38;;;25.02;62.03
51123;BME280;37162;41.724;13.346;2022-08-19T03:26:09;96047.66;;;25.02;61.86
51123;BME280;37162;41.724;13.346;2022-08-19T03:28:34;96029.72;;;25.01;62.01
51123;BME280;37162;41.724;13.346;2022-08-19T03:31:05;96078.34;;;25.02;61.90
51123;BME280;37162;41.724;13.346;2022-08-19T03:33:32;96090.34;;;25.01;61.62
51123;BME280;37162;41.724;13.346;2022-08-19T03:36:09;96112.06;;;25.01;61.73
51123;BME280;37162;41.724;13.346;2022-08-19T03:38:47;96112.06;;;25.01;61.66
51123;BME280;37162;41.724;13.346;2022-08-19T03:41:23;96169.97;;;25.02;61.77
51123;BME280;37162;41.724;13.346;2022-08-19T03:43:49;96188.97;;;25.02;61.71
51123;BME280;37162;41.724;13.346;2022-08-19T03:46:20;96135.44;;;25.02;61.82
51123;BME280;37162;41.724;13.346;2022-08-19T03:48:47;96131.09;;;25.01;61.54
51123;BME280;37162;41.724;13.346;2022-08-19T03:51:21;96152.84;;;25.01;61.72
51123;BME280;37162;41.724;13.346;2022-08-19T03:53:46;96198.25;;;25.01;61.66
51123;BME280;37162;41.724;13.346;2022-08-19T03:56:12;96285.53;;;24.99;61.62
51123;BME280;37162;41.724;13.346;2022-08-19T03:58:39;96336.88;;;25.01;62.03
51123;BME280;37162;41.724;13.346;2022-08-19T04:01:13;96331.75;;;24.99;61.91
51123;BME280;37162;41.724;13.346;2022-08-19T04:03:40;96274.53;;;24.90;62.24
51123;BME280;37162;41.724;13.346;2022-08-19T04:06:17;96221.69;;;24.96;62.74
51123;BME280;37162;41.724;13.346;2022-08-19T04:08:44;96147.28;;;24.92;62.80
51123;BME280;37162;41.724;13.346;2022-08-19T04:11:13;96141.84;;;24.92;63.07
51123;BME280;37162;41.724;13.346;2022-08-19T04:13:39;96206.06;;;24.88;63.03
51123;BME280;37162;41.724;13.346;2022-08-19T04:16:05;96285.97;;;24.87;62.90
51123;BME280;37162;41.724;13.346;2022-08-19T04:18:32;96274.00;;;24.88;62.73
51123;BME280;37162;41.724;13.346;2022-08-19T04:20:59;96267.75;;;24.88;62.87
51123;BME280;37162;41.724;13.346;2022-08-19T04:23:25;96271.88;;;24.85;62.98
51123;BME280;37162;41.724;13.346;2022-08-19T04:25:50;96274.00;;;24.88;63.22
51123;BME280;37162;41.724;13.346;2022-08-19T04:28:16;96250.94;;;24.86;63.28
51123;BME280;37162;41.724;13.346;2022-08-19T04:30:44;96244.50;;;24.82;62.99
51123;BME280;37162;41.724;13.346;2022-08-19T04:33:12;96275.63;;;24.89;63.22
51123;BME280;37162;41.724;13.346;2022-08-19T04:35:44;96280.22;;;24.89;63.36
51123;BME280;37162;41.724;13.346;2022-08-19T04:38:11;96293.00;;;24.88;63.10
51123;BME280;37162;41.724;13.346;2022-08-19T04:40:44;96296.53;;;24.89;63.10
51123;BME280;37162;41.724;13.346;2022-08-19T04:43:29;96270.78;;;24.86;63.35
51123;BME280;37162;41.724;13.346;2022-08-19T04:45:54;96271.88;;;24.85;63.30
51123;BME280;37162;41.724;13.346;2022-08-19T04:48:20;96304.50;;;24.85;63.18
51123;BME280;37162;41.724;13.346;2022-08-19T04:50:55;96327.03;;;24.86;63.46
51123;BME280;37162;41.724;13.346;2022-08-19T04:53:34;96315.88;;;24.87;63.18
51123;BME280;37162;41.724;13.346;2022-08-19T04:56:08;96287.88;;;24.87;63.44
51123;BME280;37162;41.724;13.346;2022-08-19T04:58:35;96286.78;;;24.88;63.38
51123;BME280;37162;41.724;13.346;2022-08-19T05:01:01;96279.72;;;24.87;63.29
51123;BME280;37162;41.724;13.346;2022-08-19T05:03:27;96270.28;;;24.84;63.25
51123;BME280;37162;41.724;13.346;2022-08-19T05:05:52;96241.69;;;24.87;63.23
51123;BME280;37162;41.724;13.346;2022-08-19T05:08:20;96217.53;;;24.85;63.45
51123;BME280;37162;41.724;13.346;2022-08-19T05:10:49;96222.97;;;24.85;63.34
51123;BME280;37162;41.724;13.346;2022-08-19T05:13:17;96237.66;;;24.84;63.19
51123;BME280;37162;41.724;13.346;2022-08-19T05:15:43;96243.09;;;24.84;63.35
51123;BME280;37162;41.724;13.346;2022-08-19T05:18:09;96242.88;;;24.81;63.28
51123;BME280;37162;41.724;13.346;2022-08-19T05:20:53;96255.06;;;24.83;63.22
51123;BME280;37162;41.724;13.346;2022-08-19T05:23:37;96271.22;;;24.74;63.21
51123;BME280;37162;41.724;13.346;2022-08-19T05:26:03;96291.50;;;24.82;63.27
51123;BME280;37162;41.724;13.346;2022-08-19T05:28:29;96277.91;;;24.82;63.27
51123;BME280;37162;41.724;13.346;2022-08-19T05:30:55;96259.69;;;24.83;63.29
51123;BME280;37162;41.724;13.346;2022-08-19T05:33:21;96238.13;;;24.72;63.25
51123;BME280;37162;41.724;13.346;2022-08-19T05:35:48;96243.38;;;24.83;63.42
51123;BME280;37162;41.724;13.346;2022-08-19T05:38:15;96230.78;;;24.73;63.27
51123;BME280;37162;41.724;13.346;2022-08-19T05:40:41;96246.09;;;24.83;63.37
51123;BME280;37162;41.724;13.346;2022-08-19T05:43:08;96246.97;;;24.78;63.65
51123;BME280;37162;41.724;13.346;2022-08-19T05:45:38;96269.75;;;24.82;63.19
51123;BME280;37162;41.724;13.346;2022-08-19T05:48:05;96273.28;;;24.83;63.57
51123;BME280;37162;41.724;13.346;2022-08-19T05:50:30;96270.56;;;24.83;63.63
51123;BME280;37162;41.724;13.346;2022-08-19T05:52:56;96256.16;;;24.82;63.38
51123;BME280;37162;41.724;13.346;2022-08-19T05:55:21;96248.81;;;24.83;63.74
51123;BME280;37162;41.724;13.346;2022-08-19T05:57:48;96252.34;;;24.83;63.72
51123;BME280;37162;41.724;13.346;2022-08-19T06:00:13;96253.13;;;24.84;63.73
51123;BME280;37162;41.724;13.346;2022-08-19T06:02:40;96252.06;;;24.85;63.75
51123;BME280;37162;41.724;13.346;2022-08-19T06:05:06;96253.97;;;24.84;63.74
51123;BME280;37162;41.724;13.346;2022-08-19T06:07:37;96239.13;;;24.77;63.63
51123;BME280;37162;41.724;13.346;2022-08-19T06:10:08;96249.34;;;24.85;63.47
51123;BME280;37162;41.724;13.346;2022-08-19T06:12:35;96247.69;;;24.84;63.72
51123;BME280;37162;41.724;13.346;2022-08-19T06:15:08;96248.81;;;24.83;63.88
51123;BME280;37162;41.724;13.346;2022-08-19T06:17:34;96255.06;;;24.83;63.65
51123;BME280;37162;41.724;13.346;2022-08-19T06:20:00;96260.22;;;24.85;63.89
51123;BME280;37162;41.724;13.346;2022-08-19T06:22:27;96265.34;;;24.86;63.51
51123;BME280;37162;41.724;13.346;2022-08-19T06:24:53;96261.50;;;24.87;63.76
51123;BME280;37162;41.724;13.346;2022-08-19T06:27:19;96260.41;;;24.88;63.55
51123;BME280;37162;41.724;13.346;2022-08-19T06:29:45;96254.97;;;24.88;63.71
51123;BME280;37162;41.724;13.346;2022-08-19T06:32:14;96253.88;;;24.89;63.73
51123;BME280;37162;41.724;13.346;2022-08-19T06:34:42;96258.22;;;24.90;63.26
51123;BME280;37162;41.724;13.346;2022-08-19T06:37:08;96261.22;;;24.89;63.78
51123;BME280;37162;41.724;13.346;2022-08-19T06:39:36;96266.88;;;24.92;63.59
51123;BME280;37162;41.724;13.346;2022-08-19T06:42:04;96266.88;;;24.92;63.55
51123;BME280;37162;41.724;13.346;2022-08-19T06:44:33;96264.16;;;24.92;63.55
51123;BME280;37162;41.724;13.346;2022-08-19T06:47:05;96265.75;;;24.93;63.63
51123;BME280;37162;41.724;13.346;2022-08-19T06:49:31;96276.94;;;24.92;64.35
51123;BME280;37162;41.724;13.346;2022-08-19T06:51:57;96283.97;;;24.93;64.36
51123;BME280;37162;41.724;13.346;2022-08-19T06:56:57;96289.13;;;24.94;64.63
51123;BME280;37162;41.724;13.346;2022-08-19T06:59:24;96284.50;;;24.95;65.10
51123;BME280;37162;41.724;13.346;2022-08-19T07:01:55;96282.59;;;24.95;65.69
51123;BME280;37162;41.724;13.346;2022-08-19T07:04:25;96285.31;;;24.95;65.28
51123;BME280;37162;41.724;13.346;2022-08-19T07:08:51;96270.38;;;24.93;66.55
51123;BME280;37162;41.724;13.346;2022-08-19T07:11:17;96276.56;;;24.98;66.80
51123;BME280;37162;41.724;13.346;2022-08-19T07:13:44;96274.94;;;24.97;67.13
51123;BME280;37162;41.724;13.346;2022-08-19T07:16:14;96278.47;;;24.98;66.96
51123;BME280;37162;41.724;13.346;2022-08-19T07:18:40;96285.31;;;24.95;66.71
51123;BME280;37162;41.724;13.346;2022-08-19T07:21:14;96289.13;;;24.94;65.84
51123;BME280;37162;41.724;13.346;2022-08-19T07:23:41;96292.88;;;24.98;65.97
51123;BME280;37162;41.724;13.346;2022-08-19T07:26:28;96295.28;;;25.00;66.33
51123;BME280;37162;41.724;13.346;2022-08-19T07:28:55;96297.47;;;24.98;66.21
51123;BME280;37162;41.724;13.346;2022-08-19T07:31:23;96299.94;;;24.99;65.62
51123;BME280;37162;41.724;13.346;2022-08-19T07:33:51;96286.13;;;24.96;65.56
51123;BME280;37162;41.724;13.346;2022-08-19T07:36:20;96297.13;;;25.05;65.35
51123;BME280;37162;41.724;13.346;2022-08-19T07:38:48;96300.34;;;25.07;65.21
51123;BME280;37162;41.724;13.346;2022-08-19T07:41:19;96297.13;;;25.05;65.02
51123;BME280;37162;41.724;13.346;2022-08-19T07:43:45;96306.34;;;25.09;64.56
51123;BME280;37162;41.724;13.346;2022-08-19T07:46:13;96315.50;;;25.13;64.46
51123;BME280;37162;41.724;13.346;2022-08-19T07:48:40;96310.88;;;25.13;64.01
51123;BME280;37162;41.724;13.346;2022-08-19T07:51:07;96310.56;;;25.15;64.11
51123;BME280;37162;41.724;13.346;2022-08-19T07:53:33;96317.34;;;25.17;63.79
51123;BME280;37162;41.724;13.346;2022-08-19T07:55:59;96313.22;;;25.20;64.12
51123;BME280;37162;41.724;13.346;2022-08-19T07:58:29;96316.72;;;25.20;63.78
51123;BME280;37162;41.724;13.346;2022-08-19T08:00:55;96313.53;;;25.18;64.00
51123;BME280;37162;41.724;13.346;2022-08-19T08:03:21;96331.34;;;25.24;64.21
51123;BME280;37162;41.724;13.346;2022-08-19T08:06:07;96329.53;;;25.20;64.14
51123;BME280;37162;41.724;13.346;2022-08-19T08:08:51;96345.47;;;25.27;63.89
51123;BME280;37162;41.724;13.346;2022-08-19T08:11:35;96352.22;;;25.29;63.48
51123;BME280;37162;41.724;13.346;2022-08-19T08:14:01;96359.78;;;25.32;63.80
51123;BME280;37162;41.724;13.346;2022-08-19T08:16:27;96357.56;;;25.34;63.54
51123;BME280;37162;41.724;13.346;2022-08-19T08:18:56;96361.91;;;25.35;63.41
51123;BME280;37162;41.724;13.346;2022-08-19T08:21:22;96360.50;;;25.38;63.15
51123;BME280;37162;41.724;13.346;2022-08-19T08:23:47;96357.00;;;25.37;63.40
51123;BME280;37162;41.724;13.346;2022-08-19T08:26:12;96369.97;;;25.40;63.29
51123;BME280;37162;41.724;13.346;2022-08-19T08:28:39;96365.88;;;25.43;63.43
51123;BME280;37162;41.724;13.346;2022-08-19T08:31:04;96371.31;;;25.43;63.08
51123;BME280;37162;41.724;13.346;2022-08-19T08:33:30;96369.91;;;25.45;63.34
51123;BME280;37162;41.724;13.346;2022-08-19T08:35:56;96378.88;;;25.46;63.15
51123;BME280;37162;41.724;13.346;2022-08-19T08:38:22;96379.06;;;25.49;63.04
51123;BME280;37162;41.724;13.346;2022-08-19T08:40:52;96369.00;;;25.50;63.04
51123;BME280;37162;41.724;13.346;2022-08-19T08:43:29;96357.53;;;25.53;62.63
51123;BME280;37162;41.724;13.346;2022-08-19T08:46:05;96364.56;;;25.54;62.58
51123;BME280;37162;41.724;13.346;2022-08-19T08:48:56;96365.31;;;25.60;62.37
51123;BME280;37162;41.724;13.346;2022-08-19T08:51:29;96359.06;;;25.59;61.95
51123;BME280;37162;41.724;13.346;2022-08-19T08:53:59;96354.03;;;25.66;62.22
51123;BME280;37162;41.724;13.346;2022-08-19T08:56:25;96365.16;;;25.70;61.97
51123;BME280;37162;41.724;13.346;2022-08-19T08:59:05;96355.06;;;25.70;61.63
51123;BME280;37162;41.724;13.346;2022-08-19T09:01:33;96355.06;;;25.70;61.71
51123;BME280;37162;41.724;13.346;2022-08-19T09:03:59;96360.72;;;25.74;61.93
51123;BME280;37162;41.724;13.346;2022-08-19T09:09:32;96361.25;;;25.76;61.88
51123;BME280;37162;41.724;13.346;2022-08-19T09:15:00;96357.41;;;25.77;61.76
51123;BME280;37162;41.724;13.346;2022-08-19T09:17:28;96369.63;;;25.80;61.77
51123;BME280;37162;41.724;13.346;2022-08-19T09:22:30;96343.28;;;25.75;61.78
51123;BME280;37162;41.724;13.346;2022-08-19T09:24:56;96355.72;;;25.81;61.61
51123;BME280;37162;41.724;13.346;2022-08-19T09:27:22;96346.16;;;25.84;61.66
51123;BME280;37162;41.724;13.346;2022-08-19T09:29:52;96336.66;;;25.81;61.53
51123;BME280;37162;41.724;13.346;2022-08-19T09:32:20;96341.41;;;25.89;61.37
51123;BME280;37162;41.724;13.346;2022-08-19T09:34:46;96330.41;;;25.81;61.18
51123;BME280;37162;41.724;13.346;2022-08-19T09:37:12;96341.91;;;25.91;61.31
51123;BME280;37162;41.724;13.346;2022-08-19T09:39:39;96332.34;;;25.94;61.18
51123;BME280;37162;41.724;13.346;2022-08-19T09:42:06;96330.22;;;25.91;61.05
51123;BME280;37162;41.724;13.346;2022-08-19T09:44:40;96337.16;;;25.97;61.08
51123;BME280;37162;41.724;13.346;2022-08-19T09:47:07;96336.09;;;25.98;60.85
51123;BME280;37162;41.724;13.346;2022-08-19T09:49:33;96333.84;;;26.00;60.89
51123;BME280;37162;41.724;13.346;2022-08-19T09:51:59;96329.00;;;25.97;60.98
51123;BME280;37162;41.724;13.346;2022-08-19T09:54:25;96336.09;;;25.98;61.00
51123;BME280;37162;41.724;13.346;2022-08-19T09:56:54;96324.66;;;25.96;61.12
51123;BME280;37162;41.724;13.346;2022-08-19T09:59:21;96327.41;;;25.96;61.15
51123;BME280;37162;41.724;13.346;2022-08-19T10:01:47;96322.56;;;25.93;61.10
51123;BME280;37162;41.724;13.346;2022-08-19T10:04:12;96329.00;;;25.97;60.96
51123;BME280;37162;41.724;13.346;2022-08-19T10:06:39;96324.38;;;25.97;61.39
51123;BME280;37162;41.724;13.346;2022-08-19T10:09:07;96320.94;;;25.92;60.77
51123;BME280;37162;41.724;13.346;2022-08-19T10:11:34;96321.84;;;26.01;60.80
51123;BME280;37162;41.724;13.346;2022-08-19T10:14:00;96323.50;;;26.02;60.77
51123;BME280;37162;41.724;13.346;2022-08-19T10:16:26;96312.66;;;25.97;60.70
51123;BME280;37162;41.724;13.346;2022-08-19T10:18:53;96318.22;;;26.06;60.67
51123;BME280;37162;41.724;13.346;2022-08-19T10:21:22;96317.41;;;26.05;60.23
51123;BME280;37162;41.724;13.346;2022-08-19T10:23:50;96313.28;;;26.08;60.52
51123;BME280;37162;41.724;13.346;2022-08-19T10:26:20;96311.06;;;26.10;60.03
51123;BME280;37162;41.724;13.346;2022-08-19T10:28:46;96313.50;;;26.11;60.27
51123;BME280;37162;41.724;13.346;2022-08-19T10:31:18;96299.88;;;26.11;60.46
51123;BME280;37162;41.724;13.346;2022-08-19T10:33:46;96305.03;;;26.13;60.32
51123;BME280;37162;41.724;13.346;2022-08-19T10:36:19;96309.34;;;26.14;60.54
51123;BME280;37162;41.724;13.346;2022-08-19T10:38:47;96299.59;;;26.13;60.22
51123;BME280;37162;41.724;13.346;2022-08-19T10:41:15;96302.00;;;26.14;60.14
51123;BME280;37162;41.724;13.346;2022-08-19T10:43:42;96304.41;;;26.16;60.16
51123;BME280;37162;41.724;13.346;2022-08-19T10:46:09;96300.59;;;26.17;60.17
51123;BME280;37162;41.724;13.346;2022-08-19T10:48:36;96292.41;;;26.17;59.56
51123;BME280;37162;41.724;13.346;2022-08-19T10:51:02;96298.34;;;26.19;59.53
51123;BME280;37162;41.724;13.346;2022-08-19T10:53:46;96296.97;;;26.21;59.85
51123;BME280;37162;41.724;13.346;2022-08-19T10:56:12;96286.88;;;26.22;59.90
51123;BME280;37162;41.724;13.346;2022-08-19T10:58:56;96284.16;;;26.22;59.50
51123;BME280;37162;41.724;13.346;2022-08-19T11:01:23;96278.19;;;26.20;59.90
51123;BME280;37162;41.724;13.346;2022-08-19T11:03:48;96289.38;;;26.18;59.73
51123;BME280;37162;41.724;13.346;2022-08-19T11:06:15;96283.72;;;26.15;59.65
51123;BME280;37162;41.724;13.346;2022-08-19T11:08:41;96274.66;;;26.06;59.12
51123;BME280;37162;41.724;13.346;2022-08-19T11:11:07;96292.63;;;26.07;58.63
51123;BME280;37162;41.724;13.346;2022-08-19T11:13:36;96284.47;;;26.07;59.49
51123;BME280;37162;41.724;13.346;2022-08-19T11:16:04;96289.06;;;26.06;59.54
51123;BME280;37162;41.724;13.346;2022-08-19T11:18:32;96280.53;;;25.99;59.63
51123;BME280;37162;41.724;13.346;2022-08-19T11:21:06;96283.84;;;25.96;57.89
51123;BME280;37162;41.724;13.346;2022-08-19T11:23:32;96289.91;;;25.93;57.89
51123;BME280;37162;41.724;13.346;2022-08-19T11:25:57;96283.03;;;25.95;58.96
51123;BME280;37162;41.724;13.346;2022-08-19T11:28:24;96288.00;;;25.93;58.18
51123;BME280;37162;41.724;13.346;2022-08-19T11:30:50;96284.03;;;25.86;58.82
51123;BME280;37162;41.724;13.346;2022-08-19T11:33:15;96293.53;;;25.88;58.79
51123;BME280;37162;41.724;13.346;2022-08-19T11:35:40;96292.72;;;25.88;59.30
51123;BME280;37162;41.724;13.346;2022-08-19T11:38:06;96281.63;;;25.84;59.84
51123;BME280;37162;41.724;13.346;2022-08-19T11:40:31;96281.31;;;25.86;60.06
51123;BME280;37162;41.724;13.346;2022-08-19T11:42:58;96274.28;;;25.85;60.10
51123;BME280;37162;41.724;13.346;2022-08-19T11:45:26;96271.25;;;25.86;60.18
51123;BME280;37162;41.724;13.346;2022-08-19T11:47:52;96277.50;;;25.87;60.05
51123;BME280;37162;41.724;13.346;2022-08-19T11:50:18;96265.00;;;25.86;60.21
51123;BME280;37162;41.724;13.346;2022-08-19T11:52:44;96270.75;;;25.84;60.02
51123;BME280;37162;41.724;13.346;2022-08-19T11:55:14;96271.34;;;25.81;59.85
51123;BME280;37162;41.724;13.346;2022-08-19T11:57:39;96255.19;;;25.71;60.31
51123;BME280;37162;41.724;13.346;2022-08-19T12:00:07;96257.31;;;25.74;58.29
51123;BME280;37162;41.724;13.346;2022-08-19T12:02:33;96245.53;;;25.65;59.52
51123;BME280;37162;41.724;13.346;2022-08-19T12:04:59;96270.91;;;25.74;59.57
51123;BME280;37162;41.724;13.346;2022-08-19T12:07:28;96273.75;;;25.69;59.54
51123;BME280;37162;41.724;13.346;2022-08-19T12:09:55;96278.06;;;25.70;59.85
51123;BME280;37162;41.724;13.346;2022-08-19T12:12:21;96280.28;;;25.68;60.24
51123;BME280;37162;41.724;13.346;2022-08-19T12:14:47;96267.28;;;25.65;60.43
51123;BME280;37162;41.724;13.346;2022-08-19T12:17:12;96273.31;;;25.62;60.19
51123;BME280;37162;41.724;13.346;2022-08-19T12:19:38;96253.66;;;25.51;60.56
51123;BME280;37162;41.724;13.346;2022-08-19T12:22:04;96264.13;;;25.58;60.37
51123;BME280;37162;41.724;13.346;2022-08-19T12:24:32;96256.28;;;25.56;59.67
51123;BME280;37162;41.724;13.346;2022-08-19T12:26:58;96258.69;;;25.58;60.13
51123;BME280;37162;41.724;13.346;2022-08-19T12:29:24;96255.47;;;25.56;60.50
51123;BME280;37162;41.724;13.346;2022-08-19T12:31:54;96262.84;;;25.55;59.93
51123;BME280;37162;41.724;13.346;2022-08-19T12:34:25;96249.53;;;25.54;60.43
51123;BME280;37162;41.724;13.346;2022-08-19T12:36:50;96252.88;;;25.51;60.49
51123;BME280;37162;41.724;13.346;2022-08-19T12:39:16;96253.94;;;25.49;60.50
51123;BME280;37162;41.724;13.346;2022-08-19T12:41:42;96261.03;;;25.51;60.68
51123;BME280;37162;41.724;13.346;2022-08-19T12:44:07;96269.47;;;25.49;60.49
51123;BME280;37162;41.724;13.346;2022-08-19T12:46:33;96261.63;;;25.47;60.52
51123;BME280;37162;41.724;13.346;2022-08-19T12:48:58;96264.63;;;25.46;60.07
51123;BME280;37162;41.724;13.346;2022-08-19T12:51:24;96257.88;;;25.43;59.24
51123;BME280;37162;41.724;13.346;2022-08-19T12:53:50;96239.22;;;25.23;58.96
51123;BME280;37162;41.724;13.346;2022-08-19T12:56:15;96274.19;;;25.43;59.65
51123;BME280;37162;41.724;13.346;2022-08-19T12:58:42;96277.72;;;25.44;60.42
51123;BME280;37162;41.724;13.346;2022-08-19T13:01:10;96285.06;;;25.43;60.86
51123;BME280;37162;41.724;13.346;2022-08-19T13:03:37;96291.94;;;25.41;60.81
51123;BME280;37162;41.724;13.346;2022-08-19T13:06:03;96274.88;;;25.35;61.72
51123;BME280;37162;41.724;13.346;2022-08-19T13:08:28;96289.81;;;25.38;62.34